Allenton, Wisconsin
Current Conditions -  °F | °C
As of 1:55 AM on Thursday 27 Nov 2014 (Local Time) from KETB Reporting Station
Light Snow Light Snow  
Wind Chill: 12°   Ceiling: 3600
Heat Index: 21°   Visibility: 3mi
Dew Point: 19°   Wind: 8mph
Humidity: 93%   Direction: 300°WNW
Pressure: 30.21"   Gusts: NA
Location:  43.42°N, 88.34°W
Report Text: KETB 270755Z AUTO 30007KT 3SM -SN SCT021 BKN036 OVC120 M06/M07 A3021 RMK AO2
Loading
Personal Weather Stations






























Interactive Weather Map New forecast layout! Learn more

10-Day Weather Forecast

Advertisements
Track Severe Weather on mobile